Ns Laguna — A8LU9 — position and weather

sailwx.info

Track history (hours):
 
Tides and Currents Weather Stations Pressure Air Temp Water Temp Dewpoint Dewpoint Depression Visibility Wind Speed Wind Dir Waves Ship Positions

Ns Laguna

Last reported at 2017-Nov-17 08:16 UTC. Time now 2017-Nov-22 20:37 UTC.
Position N 36°24' E 014°37'.

Length 249 m; draft 11 m.

Type: Tanker. MMSI: 636013274.

Date/timePositionNaut miles runAvg speedWind from/ knotsBaromVisibWave heightAir tempDewpointWater temp
2017-Nov-17 08:16N 36°24' E 014°37'312.9
2017-Nov-17 08:00N 36°25' E 014°32'612.5
2017-Nov-17 07:30N 36°25' E 014°25'612.2
2017-Nov-17 07:00N 36°26' E 014°17'612.2
2017-Nov-17 06:30N 36°27' E 014°10'612.1
2017-Nov-17 06:00N 36°28' E 014°02'612.2
2017-Nov-17 05:29N 36°29' E 013°55'612.3
2017-Nov-17 05:00N 36°30' E 013°47'  
2017-Nov-13 23:03N 36°01' W 005°12'115.3
2017-Nov-13 23:00N 36°01' W 005°13'714.2
2017-Nov-13 22:31N 35°59' W 005°21'713.1
2017-Nov-13 22:00N 35°57' W 005°29'  
2017-Nov-10 14:21N 36°01' W 023°50'410.0
2017-Nov-10 13:55N 36°01' W 023°55'410.2
2017-Nov-10 13:30N 36°01' W 024°00'510.0
2017-Nov-10 13:00N 36°01' W 024°07'510.1
2017-Nov-10 12:30N 36°01' W 024°13'510.1
2017-Nov-10 12:00N 36°01' W 024°19'510.0
2017-Nov-10 11:30N 36°01' W 024°25'510.1
2017-Nov-10 11:00N 36°01' W 024°32'510.2
2017-Nov-10 10:31N 36°01' W 024°38'510.1
2017-Nov-10 10:01N 36°01' W 024°44'510.2
2017-Nov-10 09:31N 36°01' W 024°50'510.2
2017-Nov-10 09:01N 36°01' W 024°57'510.2
2017-Nov-10 08:30N 36°01' W 025°03'510.1
2017-Nov-10 08:01N 36°01' W 025°09'510.0
2017-Nov-10 07:30N 36°01' W 025°15'510.2
2017-Nov-10 07:00N 36°01' W 025°22'510.2
2017-Nov-10 06:30N 36°01' W 025°28'510.4
2017-Nov-10 06:01N 36°01' W 025°34'510.2
2017-Nov-10 05:30N 36°01' W 025°41'510.5
2017-Nov-10 05:00N 36°01' W 025°47'510.3
2017-Nov-10 04:31N 36°01' W 025°54'510.1
2017-Nov-10 04:00N 36°01' W 025°60'610.4
2017-Nov-10 03:25N 36°01' W 026°08'410.4
2017-Nov-10 03:01N 36°02' W 026°13'  
Track history (hours):
 
Tides and Currents Weather Stations Pressure Air Temp Water Temp Dewpoint Dewpoint Depression Visibility Wind Speed Wind Dir Waves Ship Positions

Ns Laguna

Last reported at 2017-Nov-17 08:16 UTC. Time now 2017-Nov-22 20:37 UTC.
Position N 36°24' E 014°37'.

Length 249 m; draft 11 m.

Type: Tanker. MMSI: 636013274.

Date/timePositionNaut miles runAvg speedWind from/ knotsBaromVisibWave heightAir tempDewpointWater temp
2017-Nov-17 08:16N 36°24' E 014°37'312.9
2017-Nov-17 08:00N 36°25' E 014°32'612.5
2017-Nov-17 07:30N 36°25' E 014°25'612.2
2017-Nov-17 07:00N 36°26' E 014°17'612.2
2017-Nov-17 06:30N 36°27' E 014°10'612.1
2017-Nov-17 06:00N 36°28' E 014°02'612.2
2017-Nov-17 05:29N 36°29' E 013°55'612.3
2017-Nov-17 05:00N 36°30' E 013°47'  
2017-Nov-13 23:03N 36°01' W 005°12'115.3
2017-Nov-13 23:00N 36°01' W 005°13'714.2
2017-Nov-13 22:31N 35°59' W 005°21'713.1
2017-Nov-13 22:00N 35°57' W 005°29'  
2017-Nov-10 14:21N 36°01' W 023°50'410.0
2017-Nov-10 13:55N 36°01' W 023°55'410.2
2017-Nov-10 13:30N 36°01' W 024°00'510.0
2017-Nov-10 13:00N 36°01' W 024°07'510.1
2017-Nov-10 12:30N 36°01' W 024°13'510.1
2017-Nov-10 12:00N 36°01' W 024°19'510.0
2017-Nov-10 11:30N 36°01' W 024°25'510.1
2017-Nov-10 11:00N 36°01' W 024°32'510.2
2017-Nov-10 10:31N 36°01' W 024°38'510.1
2017-Nov-10 10:01N 36°01' W 024°44'510.2
2017-Nov-10 09:31N 36°01' W 024°50'510.2
2017-Nov-10 09:01N 36°01' W 024°57'510.2
2017-Nov-10 08:30N 36°01' W 025°03'510.1
2017-Nov-10 08:01N 36°01' W 025°09'510.0
2017-Nov-10 07:30N 36°01' W 025°15'510.2
2017-Nov-10 07:00N 36°01' W 025°22'510.2
2017-Nov-10 06:30N 36°01' W 025°28'510.4
2017-Nov-10 06:01N 36°01' W 025°34'510.2
2017-Nov-10 05:30N 36°01' W 025°41'510.5
2017-Nov-10 05:00N 36°01' W 025°47'510.3
2017-Nov-10 04:31N 36°01' W 025°54'510.1
2017-Nov-10 04:00N 36°01' W 025°60'610.4
2017-Nov-10 03:25N 36°01' W 026°08'410.4
2017-Nov-10 03:01N 36°02' W 026°13'  

Dump ship's entire track history